メインページ
METAR-TAF:

METAR-TAF

空港 :

リマ, ペルー

ホルヘ・チャベス国際空港

緯度: 12-00S, 経度: 077-07W, 海抜: 12m

現時点の気象観測

当レポートは15分前の06:00(UTC)に作成
南/南東の風 8kt
気温 23°C
湿度 89%
気圧 1012 hPa
視程10km以上
高度13000ftの千切れ雲あり

METAR: SPJC 280600Z 16008KT 9999 BKN130 23/21 Q1012 NOSIG RMK PP000

時間: 01:15 (06:15 UTC)

予報

当レポートは1時間15分前の05:00(UTC)に作成
予報は28日の 06時(UTC)から 29日の 06時(UTC)まで有効
の風 6kt
視程10km以上
高度12000ftの千切れ雲あり
28日の 13時(UTC)から 28日の 15時(UTC)まで徐々に
西の風 10kt
視程10km以上
1,500メートル以下は雲なし、積乱雲なし
間 から UTC徐々に
28日の 13時(UTC)から 28日の 15時(UTC)まで徐々に
西の風 10kt
視程10km以上
1,500メートル以下は雲なし、積乱雲なし
28日の 19時(UTC)から 28日の 21時(UTC)まで徐々に
南西の風 10kt
29日の 0200時(UTC)から
南西の風 5kt
視程: 8000m
高度8000ftの千切れ雲あり

TAF: SPJC 280500Z 2806/2906 19006KT 9999 BKN120 TX28/2819Z TN22/2811Z BECMG 2813/2815 26010KT CAVOK BECMG BECMG 2813/2815 27010KT CAVOK BECMG 2819/2821 22010KT FM290200 22005KT 8000 BKN080

4,000以上の空港の気象観測と天気予報(METAR報とTAF報)

利用可能な観測所は地図上に黄色い丸と赤い丸で示す。

丸の上にカーソルを重ねると観測所名を参照できる。

次にクリックすると気象観測と天気予報を参照できる。

マップの切り替え:黒色「×」印の緑ボタンをクリックして拡大、「-」印の緑ボタンをクリックして縮小、緑色の三角印をクリックして隣りの地図に切り替え


METAR-TAF: